createdAt,value
2023-03-23T16:01:16.696Z,93258.53
2023-03-23T16:06:24.903Z,93256.56
2023-03-23T16:11:29.276Z,93258.41
2023-03-23T16:16:34.981Z,93250.31
2023-03-23T16:21:36.505Z,93259.88
2023-03-23T16:26:38.208Z,93252.81
2023-03-23T16:31:41.169Z,93257.66
2023-03-23T16:36:42.613Z,93259.53
2023-03-23T16:41:44.088Z,93267.72
2023-03-23T16:46:46.918Z,93267.72
2023-03-23T16:51:48.379Z,93270.97
2023-03-23T16:56:50.437Z,93268.19
2023-03-23T17:01:53.369Z,93266.44
2023-03-23T17:06:54.923Z,93265.66
2023-03-23T17:11:56.373Z,93271.34
2023-03-23T17:16:59.925Z,93280.44
2023-03-23T17:22:01.642Z,93272.34
2023-03-23T17:27:03.311Z,93277.09
2023-03-23T17:32:06.254Z,93267.50
2023-03-23T17:37:08.373Z,93274.44
2023-03-23T17:42:10.103Z,93268.78
2023-03-23T17:47:12.931Z,93273.41
2023-03-23T17:52:14.883Z,93279.41
2023-03-23T17:57:16.474Z,93290.38
2023-03-23T18:02:19.330Z,93296.00
2023-03-23T18:07:21.842Z,93292.97
2023-03-23T18:12:23.391Z,93296.22
2023-03-23T18:17:26.895Z,93290.00
2023-03-23T18:22:28.536Z,93286.63
2023-03-23T18:27:30.118Z,93290.66
2023-03-23T18:32:35.205Z,93289.00
2023-03-23T18:37:37.066Z,93290.19
2023-03-23T18:42:40.580Z,93285.31
2023-03-23T18:47:43.678Z,93287.06
2023-03-23T18:52:45.221Z,93285.09
2023-03-23T18:57:46.684Z,93287.03
2023-03-23T19:02:49.682Z,93293.38
2023-03-23T19:07:53.786Z,93280.75
2023-03-23T19:12:55.485Z,93288.50
2023-03-23T19:17:58.492Z,93286.41
2023-03-23T19:23:00.339Z,93291.75
2023-03-23T19:33:07.696Z,93291.94
2023-03-23T19:38:09.230Z,93286.66
2023-03-23T19:43:10.823Z,93281.78
2023-03-23T19:48:13.707Z,93284.88
2023-03-23T19:53:15.935Z,93281.88
2023-03-23T19:58:17.768Z,93285.91
2023-03-23T20:03:21.512Z,93279.13
2023-03-23T20:08:23.279Z,93284.06
2023-03-23T20:13:24.847Z,93282.13
2023-03-23T20:18:29.156Z,93278.16
2023-03-23T20:23:31.188Z,93271.88
2023-03-23T20:28:32.943Z,93265.06
2023-03-23T20:33:36.648Z,93269.09
2023-03-23T20:38:39.424Z,93270.66
2023-03-23T20:43:43.082Z,93266.41
2023-03-23T20:48:45.965Z,93261.53
2023-03-23T20:53:47.527Z,93250.06
2023-03-23T20:58:49.128Z,93253.88
2023-03-23T21:03:52.630Z,93260.50
2023-03-23T21:08:54.964Z,93254.53
2023-03-23T21:13:56.584Z,93255.94
2023-03-23T21:18:59.734Z,93258.25
2023-03-23T21:24:01.491Z,93249.69
2023-03-23T21:29:03.530Z,93233.00
2023-03-23T21:34:07.006Z,93221.97
2023-03-23T21:39:08.520Z,93208.63
2023-03-23T21:44:10.067Z,93201.56
2023-03-23T21:49:13.229Z,93197.34
2023-03-23T21:54:14.746Z,93186.28
2023-03-23T21:59:16.214Z,93185.31
2023-03-23T22:04:19.550Z,93180.84
2023-03-23T22:09:21.090Z,93178.34
2023-03-23T22:14:22.604Z,93168.72
2023-03-23T22:19:25.548Z,93168.03
2023-03-23T22:24:27.338Z,93167.03
2023-03-23T22:29:28.813Z,93167.94
2023-03-23T22:34:31.617Z,93157.91
2023-03-23T22:39:33.095Z,93144.81
2023-03-23T22:44:34.630Z,93138.66
2023-03-23T22:49:37.473Z,93132.34
2023-03-23T22:54:39.031Z,93115.44
2023-03-23T22:59:40.502Z,93099.19
2023-03-23T23:04:43.309Z,93096.38
2023-03-23T23:09:45.863Z,93091.34
2023-03-23T23:14:47.321Z,93092.91
2023-03-23T23:19:50.222Z,93097.50
2023-03-23T23:24:51.911Z,93100.19
2023-03-23T23:29:53.432Z,93097.63
2023-03-23T23:34:56.419Z,93100.94
2023-03-23T23:39:57.941Z,93111.09
2023-03-23T23:44:59.498Z,93103.09
2023-03-23T23:50:02.636Z,93094.84
2023-03-23T23:55:05.422Z,93105.09
